sensor_id;sensor_type;location;lat;lon;timestamp;temperature;humidity
25300;DHT22;13241;51.208;4.432;2023-06-05T00:01:39;15.30;99.90
25300;DHT22;13241;51.208;4.432;2023-06-05T00:04:07;15.40;99.90
25300;DHT22;13241;51.208;4.432;2023-06-05T00:06:34;15.30;99.90
25300;DHT22;13241;51.208;4.432;2023-06-05T00:09:01;15.30;99.90
25300;DHT22;13241;51.208;4.432;2023-06-05T00:11:28;15.20;99.90
25300;DHT22;13241;51.208;4.432;2023-06-05T00:13:55;15.40;99.90
25300;DHT22;13241;51.208;4.432;2023-06-05T00:16:22;15.20;99.90
25300;DHT22;13241;51.208;4.432;2023-06-05T00:18:49;15.30;99.90
25300;DHT22;13241;51.208;4.432;2023-06-05T00:21:17;15.10;99.90
25300;DHT22;13241;51.208;4.432;2023-06-05T00:23:44;15.10;99.90
25300;DHT22;13241;51.208;4.432;2023-06-05T00:26:11;15.10;99.90
25300;DHT22;13241;51.208;4.432;2023-06-05T00:28:37;15.10;99.90
25300;DHT22;13241;51.208;4.432;2023-06-05T00:31:05;15.20;99.90
25300;DHT22;13241;51.208;4.432;2023-06-05T00:33:33;15.00;99.90
25300;DHT22;13241;51.208;4.432;2023-06-05T00:36:00;15.00;99.90
25300;DHT22;13241;51.208;4.432;2023-06-05T00:38:27;15.00;99.90
25300;DHT22;13241;51.208;4.432;2023-06-05T00:40:54;15.00;99.90
25300;DHT22;13241;51.208;4.432;2023-06-05T00:43:21;15.10;99.90
25300;DHT22;13241;51.208;4.432;2023-06-05T00:45:48;14.90;99.90
25300;DHT22;13241;51.208;4.432;2023-06-05T00:48:18;14.90;99.90
25300;DHT22;13241;51.208;4.432;2023-06-05T00:50:45;14.90;99.90
25300;DHT22;13241;51.208;4.432;2023-06-05T00:53:12;14.80;99.90
25300;DHT22;13241;51.208;4.432;2023-06-05T00:55:39;14.80;99.90
25300;DHT22;13241;51.208;4.432;2023-06-05T00:58:06;14.60;99.90
25300;DHT22;13241;51.208;4.432;2023-06-05T01:00:34;14.70;99.90
25300;DHT22;13241;51.208;4.432;2023-06-05T01:03:01;14.80;99.90
25300;DHT22;13241;51.208;4.432;2023-06-05T01:05:29;14.60;99.90
25300;DHT22;13241;51.208;4.432;2023-06-05T01:07:56;14.80;99.90
25300;DHT22;13241;51.208;4.432;2023-06-05T01:10:24;14.60;99.90
25300;DHT22;13241;51.208;4.432;2023-06-05T01:13:10;14.60;99.90
25300;DHT22;13241;51.208;4.432;2023-06-05T01:15:43;14.50;99.90
25300;DHT22;13241;51.208;4.432;2023-06-05T01:18:10;14.50;99.90
25300;DHT22;13241;51.208;4.432;2023-06-05T01:20:39;14.50;99.90
25300;DHT22;13241;51.208;4.432;2023-06-05T01:23:07;14.50;99.90
25300;DHT22;13241;51.208;4.432;2023-06-05T01:25:35;14.40;99.90
25300;DHT22;13241;51.208;4.432;2023-06-05T01:28:17;14.40;99.90
25300;DHT22;13241;51.208;4.432;2023-06-05T01:31:18;14.40;99.90
25300;DHT22;13241;51.208;4.432;2023-06-05T01:33:57;14.30;99.90
25300;DHT22;13241;51.208;4.432;2023-06-05T01:36:29;14.30;99.90
25300;DHT22;13241;51.208;4.432;2023-06-05T01:38:59;14.20;99.90
25300;DHT22;13241;51.208;4.432;2023-06-05T01:41:27;14.20;99.90
25300;DHT22;13241;51.208;4.432;2023-06-05T01:43:55;14.20;99.90
25300;DHT22;13241;51.208;4.432;2023-06-05T01:46:24;14.10;99.90
25300;DHT22;13241;51.208;4.432;2023-06-05T01:48:52;14.10;99.90
25300;DHT22;13241;51.208;4.432;2023-06-05T01:51:21;14.10;99.90
25300;DHT22;13241;51.208;4.432;2023-06-05T01:53:48;14.00;99.90
25300;DHT22;13241;51.208;4.432;2023-06-05T01:56:16;14.00;99.90
25300;DHT22;13241;51.208;4.432;2023-06-05T01:58:47;14.00;99.90
25300;DHT22;13241;51.208;4.432;2023-06-05T02:01:15;14.00;99.90
25300;DHT22;13241;51.208;4.432;2023-06-05T02:03:43;14.00;99.90
25300;DHT22;13241;51.208;4.432;2023-06-05T02:06:16;13.80;99.90
25300;DHT22;13241;51.208;4.432;2023-06-05T02:08:43;13.90;99.90
25300;DHT22;13241;51.208;4.432;2023-06-05T02:11:10;13.90;99.90
25300;DHT22;13241;51.208;4.432;2023-06-05T02:13:38;13.80;99.90
25300;DHT22;13241;51.208;4.432;2023-06-05T02:16:10;14.10;99.90
25300;DHT22;13241;51.208;4.432;2023-06-05T02:18:37;14.00;99.90
25300;DHT22;13241;51.208;4.432;2023-06-05T02:21:05;13.80;99.90
25300;DHT22;13241;51.208;4.432;2023-06-05T02:23:36;13.70;99.90
25300;DHT22;13241;51.208;4.432;2023-06-05T02:26:03;13.70;99.90
25300;DHT22;13241;51.208;4.432;2023-06-05T02:28:30;13.70;99.90
25300;DHT22;13241;51.208;4.432;2023-06-05T02:30:58;13.70;99.90
25300;DHT22;13241;51.208;4.432;2023-06-05T02:33:26;13.60;99.90
25300;DHT22;13241;51.208;4.432;2023-06-05T02:35:53;13.50;99.90
25300;DHT22;13241;51.208;4.432;2023-06-05T02:38:20;13.60;99.90
25300;DHT22;13241;51.208;4.432;2023-06-05T02:40:47;13.60;99.90
25300;DHT22;13241;51.208;4.432;2023-06-05T02:43:14;13.60;99.90
25300;DHT22;13241;51.208;4.432;2023-06-05T02:45:41;13.60;99.90
25300;DHT22;13241;51.208;4.432;2023-06-05T02:48:08;13.50;99.90
25300;DHT22;13241;51.208;4.432;2023-06-05T02:50:35;13.50;99.90
25300;DHT22;13241;51.208;4.432;2023-06-05T02:53:05;13.40;99.90
25300;DHT22;13241;51.208;4.432;2023-06-05T02:55:36;13.50;99.90
25300;DHT22;13241;51.208;4.432;2023-06-05T02:58:10;13.40;99.90
25300;DHT22;13241;51.208;4.432;2023-06-05T03:00:45;13.40;99.90
25300;DHT22;13241;51.208;4.432;2023-06-05T03:03:14;13.30;99.90
25300;DHT22;13241;51.208;4.432;2023-06-05T03:05:46;13.30;99.90
25300;DHT22;13241;51.208;4.432;2023-06-05T03:08:15;13.20;99.90
25300;DHT22;13241;51.208;4.432;2023-06-05T03:10:45;13.20;99.90
25300;DHT22;13241;51.208;4.432;2023-06-05T03:13:13;13.20;99.90
25300;DHT22;13241;51.208;4.432;2023-06-05T03:15:40;13.20;99.90
25300;DHT22;13241;51.208;4.432;2023-06-05T03:18:14;13.20;99.90
25300;DHT22;13241;51.208;4.432;2023-06-05T03:20:43;13.30;99.90
25300;DHT22;13241;51.208;4.432;2023-06-05T03:23:12;13.30;99.90
25300;DHT22;13241;51.208;4.432;2023-06-05T03:25:39;13.20;99.90
25300;DHT22;13241;51.208;4.432;2023-06-05T03:28:07;13.20;99.90
25300;DHT22;13241;51.208;4.432;2023-06-05T03:30:35;13.20;99.90
25300;DHT22;13241;51.208;4.432;2023-06-05T03:33:02;13.20;99.90
25300;DHT22;13241;51.208;4.432;2023-06-05T03:35:30;13.20;99.90
25300;DHT22;13241;51.208;4.432;2023-06-05T03:38:03;13.10;99.90
25300;DHT22;13241;51.208;4.432;2023-06-05T03:40:30;13.20;99.90
25300;DHT22;13241;51.208;4.432;2023-06-05T03:42:58;13.00;99.90
25300;DHT22;13241;51.208;4.432;2023-06-05T03:45:26;13.10;99.90
25300;DHT22;13241;51.208;4.432;2023-06-05T03:47:54;13.00;99.90
25300;DHT22;13241;51.208;4.432;2023-06-05T03:50:28;13.10;99.90
25300;DHT22;13241;51.208;4.432;2023-06-05T03:53:00;13.00;99.90
25300;DHT22;13241;51.208;4.432;2023-06-05T03:55:31;13.00;99.90
25300;DHT22;13241;51.208;4.432;2023-06-05T03:58:12;13.00;99.90
25300;DHT22;13241;51.208;4.432;2023-06-05T04:00:47;13.00;99.90
25300;DHT22;13241;51.208;4.432;2023-06-05T04:03:16;13.00;99.90
25300;DHT22;13241;51.208;4.432;2023-06-05T04:05:43;13.20;99.90
25300;DHT22;13241;51.208;4.432;2023-06-05T04:08:10;13.00;99.90
25300;DHT22;13241;51.208;4.432;2023-06-05T04:10:38;13.00;99.90
25300;DHT22;13241;51.208;4.432;2023-06-05T04:13:05;13.10;99.90
25300;DHT22;13241;51.208;4.432;2023-06-05T04:15:34;13.10;99.90
25300;DHT22;13241;51.208;4.432;2023-06-05T04:18:03;13.10;99.90
25300;DHT22;13241;51.208;4.432;2023-06-05T04:20:30;13.10;99.90
25300;DHT22;13241;51.208;4.432;2023-06-05T04:22:58;13.10;99.90
25300;DHT22;13241;51.208;4.432;2023-06-05T04:25:27;13.20;99.90
25300;DHT22;13241;51.208;4.432;2023-06-05T04:27:56;13.10;99.90
25300;DHT22;13241;51.208;4.432;2023-06-05T04:30:24;13.20;99.90
25300;DHT22;13241;51.208;4.432;2023-06-05T04:32:51;13.20;99.90
25300;DHT22;13241;51.208;4.432;2023-06-05T04:35:23;13.20;99.90
25300;DHT22;13241;51.208;4.432;2023-06-05T04:37:50;13.00;99.90
25300;DHT22;13241;51.208;4.432;2023-06-05T04:40:19;13.20;99.90
25300;DHT22;13241;51.208;4.432;2023-06-05T04:42:50;13.30;99.90
25300;DHT22;13241;51.208;4.432;2023-06-05T04:45:19;13.30;99.90
25300;DHT22;13241;51.208;4.432;2023-06-05T04:47:47;13.50;99.90
25300;DHT22;13241;51.208;4.432;2023-06-05T04:50:25;13.40;99.90
25300;DHT22;13241;51.208;4.432;2023-06-05T04:53:04;13.50;99.90
25300;DHT22;13241;51.208;4.432;2023-06-05T04:55:32;13.60;99.90
25300;DHT22;13241;51.208;4.432;2023-06-05T04:57:59;13.60;99.90
25300;DHT22;13241;51.208;4.432;2023-06-05T05:00:29;13.60;99.90
25300;DHT22;13241;51.208;4.432;2023-06-05T05:02:58;13.60;99.90
25300;DHT22;13241;51.208;4.432;2023-06-05T05:05:26;13.70;99.90
25300;DHT22;13241;51.208;4.432;2023-06-05T05:07:54;13.60;99.90
25300;DHT22;13241;51.208;4.432;2023-06-05T05:10:24;13.70;99.90
25300;DHT22;13241;51.208;4.432;2023-06-05T05:12:51;13.80;99.90
25300;DHT22;13241;51.208;4.432;2023-06-05T05:15:19;13.80;99.90
25300;DHT22;13241;51.208;4.432;2023-06-05T05:17:47;14.10;99.90
25300;DHT22;13241;51.208;4.432;2023-06-05T05:20:14;14.30;99.90
25300;DHT22;13241;51.208;4.432;2023-06-05T05:22:42;14.30;99.90
25300;DHT22;13241;51.208;4.432;2023-06-05T05:25:09;14.40;99.90
25300;DHT22;13241;51.208;4.432;2023-06-05T05:27:42;14.50;99.90
25300;DHT22;13241;51.208;4.432;2023-06-05T05:30:09;14.60;99.90
25300;DHT22;13241;51.208;4.432;2023-06-05T05:32:37;14.70;99.90
25300;DHT22;13241;51.208;4.432;2023-06-05T05:35:04;14.70;99.90
25300;DHT22;13241;51.208;4.432;2023-06-05T05:37:32;14.70;99.90
25300;DHT22;13241;51.208;4.432;2023-06-05T05:39:59;14.70;99.90
25300;DHT22;13241;51.208;4.432;2023-06-05T05:42:26;14.70;99.90
25300;DHT22;13241;51.208;4.432;2023-06-05T05:44:53;14.80;99.90
25300;DHT22;13241;51.208;4.432;2023-06-05T05:47:20;14.80;99.90
25300;DHT22;13241;51.208;4.432;2023-06-05T05:49:47;14.90;99.90
25300;DHT22;13241;51.208;4.432;2023-06-05T05:52:13;15.00;99.90
25300;DHT22;13241;51.208;4.432;2023-06-05T05:54:40;15.10;99.90
25300;DHT22;13241;51.208;4.432;2023-06-05T05:57:07;15.20;99.90
25300;DHT22;13241;51.208;4.432;2023-06-05T05:59:35;15.30;99.90
25300;DHT22;13241;51.208;4.432;2023-06-05T06:02:02;15.30;99.90
25300;DHT22;13241;51.208;4.432;2023-06-05T06:04:35;15.30;99.90
25300;DHT22;13241;51.208;4.432;2023-06-05T06:07:03;15.40;99.90
25300;DHT22;13241;51.208;4.432;2023-06-05T06:09:31;15.50;99.90
25300;DHT22;13241;51.208;4.432;2023-06-05T06:11:59;15.50;99.90
25300;DHT22;13241;51.208;4.432;2023-06-05T06:14:35;15.60;99.90
25300;DHT22;13241;51.208;4.432;2023-06-05T06:17:03;15.70;99.90
25300;DHT22;13241;51.208;4.432;2023-06-05T06:19:32;15.90;99.90
25300;DHT22;13241;51.208;4.432;2023-06-05T06:21:59;16.10;99.90
25300;DHT22;13241;51.208;4.432;2023-06-05T06:24:26;16.20;99.90
25300;DHT22;13241;51.208;4.432;2023-06-05T06:26:53;16.40;99.90
25300;DHT22;13241;51.208;4.432;2023-06-05T06:29:24;16.60;99.90
25300;DHT22;13241;51.208;4.432;2023-06-05T06:31:52;16.50;99.90
25300;DHT22;13241;51.208;4.432;2023-06-05T06:34:19;16.50;99.90
25300;DHT22;13241;51.208;4.432;2023-06-05T06:36:46;16.50;99.90
25300;DHT22;13241;51.208;4.432;2023-06-05T06:39:13;16.80;99.90
25300;DHT22;13241;51.208;4.432;2023-06-05T06:41:40;16.70;99.90
25300;DHT22;13241;51.208;4.432;2023-06-05T06:44:07;16.60;99.90
25300;DHT22;13241;51.208;4.432;2023-06-05T06:46:35;16.70;99.90
25300;DHT22;13241;51.208;4.432;2023-06-05T06:49:03;16.90;99.90
25300;DHT22;13241;51.208;4.432;2023-06-05T06:51:30;17.00;99.90
25300;DHT22;13241;51.208;4.432;2023-06-05T06:53:57;17.10;99.90
25300;DHT22;13241;51.208;4.432;2023-06-05T06:56:23;17.20;99.90
25300;DHT22;13241;51.208;4.432;2023-06-05T06:58:53;17.40;99.90
25300;DHT22;13241;51.208;4.432;2023-06-05T07:01:20;17.70;99.90
25300;DHT22;13241;51.208;4.432;2023-06-05T07:03:47;17.60;99.90
25300;DHT22;13241;51.208;4.432;2023-06-05T07:06:14;17.70;99.90
25300;DHT22;13241;51.208;4.432;2023-06-05T07:08:41;17.80;99.90
25300;DHT22;13241;51.208;4.432;2023-06-05T07:11:08;18.00;99.90
25300;DHT22;13241;51.208;4.432;2023-06-05T07:13:36;17.90;99.90
25300;DHT22;13241;51.208;4.432;2023-06-05T07:16:03;17.80;99.90
25300;DHT22;13241;51.208;4.432;2023-06-05T07:18:30;17.90;99.90
25300;DHT22;13241;51.208;4.432;2023-06-05T07:20:57;18.10;99.90
25300;DHT22;13241;51.208;4.432;2023-06-05T07:23:24;18.40;99.90
25300;DHT22;13241;51.208;4.432;2023-06-05T07:25:52;18.50;99.90
25300;DHT22;13241;51.208;4.432;2023-06-05T07:28:19;18.80;99.90
25300;DHT22;13241;51.208;4.432;2023-06-05T07:30:48;19.10;99.90
25300;DHT22;13241;51.208;4.432;2023-06-05T07:33:16;19.00;99.90
25300;DHT22;13241;51.208;4.432;2023-06-05T07:35:55;19.00;99.90
25300;DHT22;13241;51.208;4.432;2023-06-05T07:38:23;19.10;99.90
25300;DHT22;13241;51.208;4.432;2023-06-05T07:40:50;18.90;99.90
25300;DHT22;13241;51.208;4.432;2023-06-05T07:43:18;19.00;99.90
25300;DHT22;13241;51.208;4.432;2023-06-05T07:45:45;19.00;99.90
25300;DHT22;13241;51.208;4.432;2023-06-05T07:48:12;19.20;99.90
25300;DHT22;13241;51.208;4.432;2023-06-05T07:50:39;19.30;99.90
25300;DHT22;13241;51.208;4.432;2023-06-05T07:53:07;19.40;99.90
25300;DHT22;13241;51.208;4.432;2023-06-05T07:55:34;19.50;99.90
25300;DHT22;13241;51.208;4.432;2023-06-05T07:58:02;19.60;99.90
25300;DHT22;13241;51.208;4.432;2023-06-05T08:00:29;19.80;99.90
25300;DHT22;13241;51.208;4.432;2023-06-05T08:02:55;19.90;99.90
25300;DHT22;13241;51.208;4.432;2023-06-05T08:05:25;19.80;99.90
25300;DHT22;13241;51.208;4.432;2023-06-05T08:07:52;20.00;99.90
25300;DHT22;13241;51.208;4.432;2023-06-05T08:10:19;20.10;99.90
25300;DHT22;13241;51.208;4.432;2023-06-05T08:12:46;20.30;99.90
25300;DHT22;13241;51.208;4.432;2023-06-05T08:15:14;20.30;99.90
25300;DHT22;13241;51.208;4.432;2023-06-05T08:17:41;20.30;99.90
25300;DHT22;13241;51.208;4.432;2023-06-05T08:20:08;20.30;99.90
25300;DHT22;13241;51.208;4.432;2023-06-05T08:22:37;20.40;99.90
25300;DHT22;13241;51.208;4.432;2023-06-05T08:25:07;20.40;99.90
25300;DHT22;13241;51.208;4.432;2023-06-05T08:27:34;20.50;99.90
25300;DHT22;13241;51.208;4.432;2023-06-05T08:30:01;20.50;99.90
25300;DHT22;13241;51.208;4.432;2023-06-05T08:32:29;20.70;99.90
25300;DHT22;13241;51.208;4.432;2023-06-05T08:34:57;20.70;99.90
25300;DHT22;13241;51.208;4.432;2023-06-05T08:37:24;20.80;99.90
25300;DHT22;13241;51.208;4.432;2023-06-05T08:39:52;20.80;99.90
25300;DHT22;13241;51.208;4.432;2023-06-05T08:42:20;20.90;99.90
25300;DHT22;13241;51.208;4.432;2023-06-05T08:44:47;21.10;99.90
25300;DHT22;13241;51.208;4.432;2023-06-05T08:47:28;21.10;99.90
25300;DHT22;13241;51.208;4.432;2023-06-05T08:49:57;21.30;99.90
25300;DHT22;13241;51.208;4.432;2023-06-05T08:52:28;21.00;99.90
25300;DHT22;13241;51.208;4.432;2023-06-05T08:54:59;21.10;99.90
25300;DHT22;13241;51.208;4.432;2023-06-05T08:57:27;21.20;99.90
25300;DHT22;13241;51.208;4.432;2023-06-05T08:59:55;21.10;99.90
25300;DHT22;13241;51.208;4.432;2023-06-05T09:02:23;21.10;99.90
25300;DHT22;13241;51.208;4.432;2023-06-05T09:04:49;21.10;99.90
25300;DHT22;13241;51.208;4.432;2023-06-05T09:07:18;21.50;99.90
25300;DHT22;13241;51.208;4.432;2023-06-05T09:09:45;21.50;99.90
25300;DHT22;13241;51.208;4.432;2023-06-05T09:12:12;21.50;99.90
25300;DHT22;13241;51.208;4.432;2023-06-05T09:14:40;21.40;99.90
25300;DHT22;13241;51.208;4.432;2023-06-05T09:17:13;21.30;99.90
25300;DHT22;13241;51.208;4.432;2023-06-05T09:19:41;21.10;99.90
25300;DHT22;13241;51.208;4.432;2023-06-05T09:22:10;21.40;99.90
25300;DHT22;13241;51.208;4.432;2023-06-05T09:24:39;21.60;99.90
25300;DHT22;13241;51.208;4.432;2023-06-05T09:27:16;21.80;99.90
25300;DHT22;13241;51.208;4.432;2023-06-05T09:29:43;21.70;99.90
25300;DHT22;13241;51.208;4.432;2023-06-05T09:34:42;21.90;99.90
25300;DHT22;13241;51.208;4.432;2023-06-05T09:37:10;22.00;99.90
25300;DHT22;13241;51.208;4.432;2023-06-05T09:39:38;21.90;99.90
25300;DHT22;13241;51.208;4.432;2023-06-05T09:42:06;21.90;99.90
25300;DHT22;13241;51.208;4.432;2023-06-05T09:44:34;21.90;99.90
25300;DHT22;13241;51.208;4.432;2023-06-05T09:47:07;21.70;99.90
25300;DHT22;13241;51.208;4.432;2023-06-05T09:52:08;22.10;99.90
25300;DHT22;13241;51.208;4.432;2023-06-05T09:54:37;22.00;99.90
25300;DHT22;13241;51.208;4.432;2023-06-05T09:57:07;22.00;99.90
25300;DHT22;13241;51.208;4.432;2023-06-05T09:59:53;21.90;99.90
25300;DHT22;13241;51.208;4.432;2023-06-05T10:02:24;21.90;99.90
25300;DHT22;13241;51.208;4.432;2023-06-05T10:05:00;22.00;99.90
25300;DHT22;13241;51.208;4.432;2023-06-05T10:07:27;22.10;99.90
25300;DHT22;13241;51.208;4.432;2023-06-05T10:09:57;22.20;99.90
25300;DHT22;13241;51.208;4.432;2023-06-05T10:12:24;22.30;99.90
25300;DHT22;13241;51.208;4.432;2023-06-05T10:14:54;22.40;99.90
25300;DHT22;13241;51.208;4.432;2023-06-05T10:17:22;22.40;99.90
25300;DHT22;13241;51.208;4.432;2023-06-05T10:19:51;22.50;99.90
25300;DHT22;13241;51.208;4.432;2023-06-05T10:22:18;22.60;99.90
25300;DHT22;13241;51.208;4.432;2023-06-05T10:24:56;22.60;99.90
25300;DHT22;13241;51.208;4.432;2023-06-05T10:30:40;22.30;99.90
25300;DHT22;13241;51.208;4.432;2023-06-05T10:33:48;22.20;99.90
25300;DHT22;13241;51.208;4.432;2023-06-05T10:36:23;22.40;99.90
25300;DHT22;13241;51.208;4.432;2023-06-05T10:38:53;22.50;99.90
25300;DHT22;13241;51.208;4.432;2023-06-05T10:41:22;22.60;99.90
25300;DHT22;13241;51.208;4.432;2023-06-05T10:43:51;22.80;99.90
25300;DHT22;13241;51.208;4.432;2023-06-05T10:46:33;22.70;99.90
25300;DHT22;13241;51.208;4.432;2023-06-05T10:49:17;22.60;99.90
25300;DHT22;13241;51.208;4.432;2023-06-05T10:51:48;22.70;99.90
25300;DHT22;13241;51.208;4.432;2023-06-05T10:56:52;23.00;99.90
25300;DHT22;13241;51.208;4.432;2023-06-05T10:59:21;23.10;99.90
25300;DHT22;13241;51.208;4.432;2023-06-05T11:15:03;23.30;99.90
25300;DHT22;13241;51.208;4.432;2023-06-05T11:17:35;23.60;99.90
25300;DHT22;13241;51.208;4.432;2023-06-05T11:20:07;23.80;99.90
25300;DHT22;13241;51.208;4.432;2023-06-05T11:23:06;23.70;99.90
25300;DHT22;13241;51.208;4.432;2023-06-05T11:25:33;23.70;99.90
25300;DHT22;13241;51.208;4.432;2023-06-05T11:28:02;23.70;99.90
25300;DHT22;13241;51.208;4.432;2023-06-05T11:30:33;23.70;99.90
25300;DHT22;13241;51.208;4.432;2023-06-05T11:33:16;23.80;99.90
25300;DHT22;13241;51.208;4.432;2023-06-05T11:35:46;23.80;99.90
25300;DHT22;13241;51.208;4.432;2023-06-05T11:38:15;23.80;99.90
25300;DHT22;13241;51.208;4.432;2023-06-05T11:40:45;23.90;99.90
25300;DHT22;13241;51.208;4.432;2023-06-05T11:43:14;24.00;99.90
25300;DHT22;13241;51.208;4.432;2023-06-05T11:45:52;24.30;99.90
25300;DHT22;13241;51.208;4.432;2023-06-05T11:48:19;24.30;99.90
25300;DHT22;13241;51.208;4.432;2023-06-05T11:51:02;24.50;99.90
25300;DHT22;13241;51.208;4.432;2023-06-05T11:53:31;24.50;99.90
25300;DHT22;13241;51.208;4.432;2023-06-05T11:55:58;24.50;99.90
25300;DHT22;13241;51.208;4.432;2023-06-05T11:58:37;24.60;99.90
25300;DHT22;13241;51.208;4.432;2023-06-05T12:01:09;24.50;99.90
25300;DHT22;13241;51.208;4.432;2023-06-05T12:03:39;24.40;99.90
25300;DHT22;13241;51.208;4.432;2023-06-05T12:06:07;24.50;99.90
25300;DHT22;13241;51.208;4.432;2023-06-05T12:08:36;24.40;99.90
25300;DHT22;13241;51.208;4.432;2023-06-05T12:11:04;24.50;99.90
25300;DHT22;13241;51.208;4.432;2023-06-05T12:13:47;24.50;99.90
25300;DHT22;13241;51.208;4.432;2023-06-05T12:16:15;24.60;99.90
25300;DHT22;13241;51.208;4.432;2023-06-05T12:18:44;24.70;99.90
25300;DHT22;13241;51.208;4.432;2023-06-05T12:21:26;24.60;99.90
25300;DHT22;13241;51.208;4.432;2023-06-05T12:24:04;24.60;99.90
25300;DHT22;13241;51.208;4.432;2023-06-05T12:26:51;24.60;99.90
25300;DHT22;13241;51.208;4.432;2023-06-05T12:29:24;24.70;99.90
25300;DHT22;13241;51.208;4.432;2023-06-05T12:31:52;24.80;99.90
25300;DHT22;13241;51.208;4.432;2023-06-05T12:34:45;24.80;99.90
25300;DHT22;13241;51.208;4.432;2023-06-05T12:37:25;24.90;99.90
25300;DHT22;13241;51.208;4.432;2023-06-05T12:39:58;25.10;99.90
25300;DHT22;13241;51.208;4.432;2023-06-05T12:42:26;25.30;99.90
25300;DHT22;13241;51.208;4.432;2023-06-05T12:44:56;25.30;99.90
25300;DHT22;13241;51.208;4.432;2023-06-05T12:47:25;25.30;99.90
25300;DHT22;13241;51.208;4.432;2023-06-05T12:50:02;25.30;99.90
25300;DHT22;13241;51.208;4.432;2023-06-05T12:52:30;25.30;99.90
25300;DHT22;13241;51.208;4.432;2023-06-05T12:54:57;25.40;99.90
25300;DHT22;13241;51.208;4.432;2023-06-05T12:57:25;25.50;99.90
25300;DHT22;13241;51.208;4.432;2023-06-05T12:59:56;25.60;99.90
25300;DHT22;13241;51.208;4.432;2023-06-05T13:02:24;25.50;99.90
25300;DHT22;13241;51.208;4.432;2023-06-05T13:04:51;25.60;99.90
25300;DHT22;13241;51.208;4.432;2023-06-05T13:07:18;25.60;99.90
25300;DHT22;13241;51.208;4.432;2023-06-05T13:09:48;25.40;99.90
25300;DHT22;13241;51.208;4.432;2023-06-05T13:12:16;25.30;99.90
25300;DHT22;13241;51.208;4.432;2023-06-05T13:14:43;25.40;99.90
25300;DHT22;13241;51.208;4.432;2023-06-05T13:17:10;25.40;99.90
25300;DHT22;13241;51.208;4.432;2023-06-05T13:19:37;25.50;99.90
25300;DHT22;13241;51.208;4.432;2023-06-05T13:22:04;25.60;99.90
25300;DHT22;13241;51.208;4.432;2023-06-05T13:24:31;26.20;99.90
25300;DHT22;13241;51.208;4.432;2023-06-05T13:26:58;27.00;99.90
25300;DHT22;13241;51.208;4.432;2023-06-05T13:29:25;27.80;99.90
25300;DHT22;13241;51.208;4.432;2023-06-05T13:31:52;28.40;99.90
25300;DHT22;13241;51.208;4.432;2023-06-05T13:34:19;28.90;99.90
25300;DHT22;13241;51.208;4.432;2023-06-05T13:36:46;29.40;99.90
25300;DHT22;13241;51.208;4.432;2023-06-05T13:39:14;29.80;99.90
25300;DHT22;13241;51.208;4.432;2023-06-05T13:41:41;29.80;99.20
25300;DHT22;13241;51.208;4.432;2023-06-05T13:44:08;29.90;98.70
25300;DHT22;13241;51.208;4.432;2023-06-05T13:46:35;30.00;98.10
25300;DHT22;13241;51.208;4.432;2023-06-05T13:49:02;29.80;97.40
25300;DHT22;13241;51.208;4.432;2023-06-05T13:51:29;29.60;97.10
25300;DHT22;13241;51.208;4.432;2023-06-05T13:53:56;30.10;96.80
25300;DHT22;13241;51.208;4.432;2023-06-05T13:56:24;30.30;96.00
25300;DHT22;13241;51.208;4.432;2023-06-05T13:58:51;30.20;95.20
25300;DHT22;13241;51.208;4.432;2023-06-05T14:01:19;30.20;95.30
25300;DHT22;13241;51.208;4.432;2023-06-05T14:03:46;30.30;95.30
25300;DHT22;13241;51.208;4.432;2023-06-05T14:06:16;30.60;95.00
25300;DHT22;13241;51.208;4.432;2023-06-05T14:08:47;30.70;94.10
25300;DHT22;13241;51.208;4.432;2023-06-05T14:11:14;30.80;94.10
25300;DHT22;13241;51.208;4.432;2023-06-05T14:13:41;30.90;93.90
25300;DHT22;13241;51.208;4.432;2023-06-05T14:16:09;31.10;93.60
25300;DHT22;13241;51.208;4.432;2023-06-05T14:18:40;31.40;93.20
25300;DHT22;13241;51.208;4.432;2023-06-05T14:21:07;31.60;92.20
25300;DHT22;13241;51.208;4.432;2023-06-05T14:23:33;31.50;92.20
25300;DHT22;13241;51.208;4.432;2023-06-05T14:26:00;31.30;92.20
25300;DHT22;13241;51.208;4.432;2023-06-05T14:28:27;31.70;91.60
25300;DHT22;13241;51.208;4.432;2023-06-05T14:30:55;32.10;90.80
25300;DHT22;13241;51.208;4.432;2023-06-05T14:33:22;32.30;91.00
25300;DHT22;13241;51.208;4.432;2023-06-05T14:35:49;32.80;90.80
25300;DHT22;13241;51.208;4.432;2023-06-05T14:38:16;33.10;89.00
25300;DHT22;13241;51.208;4.432;2023-06-05T14:40:43;32.40;88.90
25300;DHT22;13241;51.208;4.432;2023-06-05T14:43:10;31.50;90.10
25300;DHT22;13241;51.208;4.432;2023-06-05T14:45:37;31.10;90.50
25300;DHT22;13241;51.208;4.432;2023-06-05T14:48:04;31.20;90.50
25300;DHT22;13241;51.208;4.432;2023-06-05T14:50:31;31.60;90.10
25300;DHT22;13241;51.208;4.432;2023-06-05T14:52:58;31.90;90.20
25300;DHT22;13241;51.208;4.432;2023-06-05T14:55:24;32.20;89.60
25300;DHT22;13241;51.208;4.432;2023-06-05T14:57:52;32.00;89.50
25300;DHT22;13241;51.208;4.432;2023-06-05T15:00:19;31.90;89.40
25300;DHT22;13241;51.208;4.432;2023-06-05T15:02:46;32.10;88.40
25300;DHT22;13241;51.208;4.432;2023-06-05T15:05:13;32.50;88.30
25300;DHT22;13241;51.208;4.432;2023-06-05T15:07:41;32.70;86.70
25300;DHT22;13241;51.208;4.432;2023-06-05T15:10:09;33.00;85.80
25300;DHT22;13241;51.208;4.432;2023-06-05T15:12:39;33.30;84.10
25300;DHT22;13241;51.208;4.432;2023-06-05T15:15:07;33.40;82.20
25300;DHT22;13241;51.208;4.432;2023-06-05T15:17:47;32.10;84.70
25300;DHT22;13241;51.208;4.432;2023-06-05T15:20:14;31.90;85.60
25300;DHT22;13241;51.208;4.432;2023-06-05T15:22:41;32.50;85.30
25300;DHT22;13241;51.208;4.432;2023-06-05T15:25:08;32.60;84.40
25300;DHT22;13241;51.208;4.432;2023-06-05T15:27:36;32.70;84.10
25300;DHT22;13241;51.208;4.432;2023-06-05T15:30:04;33.10;83.50
25300;DHT22;13241;51.208;4.432;2023-06-05T15:32:32;33.50;82.90
25300;DHT22;13241;51.208;4.432;2023-06-05T15:34:59;33.50;82.50
25300;DHT22;13241;51.208;4.432;2023-06-05T15:37:27;33.70;82.00
25300;DHT22;13241;51.208;4.432;2023-06-05T15:39:54;33.70;81.60
25300;DHT22;13241;51.208;4.432;2023-06-05T15:42:29;32.80;81.80
25300;DHT22;13241;51.208;4.432;2023-06-05T15:47:34;33.10;82.20
25300;DHT22;13241;51.208;4.432;2023-06-05T15:50:03;33.70;80.50
25300;DHT22;13241;51.208;4.432;2023-06-05T15:52:34;33.80;79.50
25300;DHT22;13241;51.208;4.432;2023-06-05T15:55:01;33.60;80.50
25300;DHT22;13241;51.208;4.432;2023-06-05T15:57:28;33.60;79.80
25300;DHT22;13241;51.208;4.432;2023-06-05T15:59:55;33.50;78.70
25300;DHT22;13241;51.208;4.432;2023-06-05T16:02:22;33.50;79.60
25300;DHT22;13241;51.208;4.432;2023-06-05T16:04:49;33.20;78.80
25300;DHT22;13241;51.208;4.432;2023-06-05T16:07:16;33.10;78.90
25300;DHT22;13241;51.208;4.432;2023-06-05T16:09:43;31.90;80.40